JST188 YMML-YBSU
Flight info
| Callsign | JST188 |
|---|---|
| Flight time | 1h 53m |
| Altitude | 35000 |
| Route | NONIX H66 IDNER/N0410F190 W214 GOMOL/N0467F360 Q69 SU |
| Aircraft | A320/M-SDE3FGHIRWY/LB1 |
Departure
| Time | 2026-05-04 15:03 |
|---|---|
| Airport | Melbourne Airport (YMML) |
Arrival
| Time | 2026-05-04 16:57 |
|---|---|
| Airport | Sunshine Coast Airport (YBSU) |
| Time | Latitude | Longitude | Altitude | Speed | Heading |
|---|---|---|---|---|---|
| 2026-05-04 15:03 | -37.60879 | 144.63943 | 7652 ft | 278 kts | 339° |
| 2026-05-04 15:03 | -37.59007 | 144.63254 | 8453 ft | 281 kts | 339° |
| 2026-05-04 15:03 | -37.57103 | 144.62608 | 9248 ft | 287 kts | 347° |
| 2026-05-04 15:03 | -37.55074 | 144.62651 | 10021 ft | 299 kts | 9° |
| 2026-05-04 15:04 | -37.53110 | 144.63657 | 10509 ft | 318 kts | 32° |
| 2026-05-04 15:04 | -37.51480 | 144.65687 | 10681 ft | 344 kts | 52° |
| 2026-05-04 15:04 | -37.50006 | 144.68188 | 10804 ft | 367 kts | 52° |
| 2026-05-04 15:04 | -37.48443 | 144.70838 | 10953 ft | 386 kts | 52° |
| 2026-05-04 15:05 | -37.46700 | 144.73507 | 11101 ft | 402 kts | 45° |
| 2026-05-04 15:05 | -37.44751 | 144.76081 | 11562 ft | 409 kts | 44° |
| 2026-05-04 15:05 | -37.42781 | 144.78675 | 12140 ft | 412 kts | 44° |
| 2026-05-04 15:05 | -37.40787 | 144.81294 | 12723 ft | 415 kts | 44° |
| 2026-05-04 15:06 | -37.38781 | 144.83934 | 13298 ft | 419 kts | 44° |
| 2026-05-04 15:06 | -37.36757 | 144.86597 | 13868 ft | 423 kts | 44° |
| 2026-05-04 15:06 | -37.34714 | 144.89281 | 14356 ft | 426 kts | 44° |
| 2026-05-04 15:07 | -37.30599 | 144.94685 | 15320 ft | 434 kts | 44° |
| 2026-05-04 15:07 | -37.28499 | 144.97444 | 15776 ft | 438 kts | 44° |
| 2026-05-04 15:07 | -37.26387 | 145.00221 | 16257 ft | 441 kts | 44° |
| 2026-05-04 15:07 | -37.24252 | 145.03022 | 16757 ft | 444 kts | 44° |
| 2026-05-04 15:08 | -37.22104 | 145.05831 | 17241 ft | 448 kts | 44° |
| 2026-05-04 15:08 | -37.19934 | 145.08660 | 17718 ft | 451 kts | 44° |
| 2026-05-04 15:08 | -37.17750 | 145.11505 | 18196 ft | 454 kts | 44° |
| 2026-05-04 15:08 | -37.15550 | 145.14372 | 18624 ft | 458 kts | 44° |
| 2026-05-04 15:09 | -37.13333 | 145.17264 | 19041 ft | 461 kts | 44° |
| 2026-05-04 15:09 | -37.11132 | 145.20131 | 19445 ft | 464 kts | 44° |
| 2026-05-04 15:09 | -37.08879 | 145.23061 | 19850 ft | 467 kts | 44° |
| 2026-05-04 15:10 | -37.03987 | 145.28476 | 20626 ft | 471 kts | 37° |
| 2026-05-04 15:10 | -37.01456 | 145.31088 | 21065 ft | 472 kts | 37° |
| 2026-05-04 15:10 | -36.96357 | 145.36349 | 21796 ft | 477 kts | 37° |
| 2026-05-04 15:11 | -36.93790 | 145.39000 | 22138 ft | 480 kts | 37° |
| 2026-05-04 15:11 | -36.91206 | 145.41669 | 22393 ft | 484 kts | 37° |
| 2026-05-04 15:11 | -36.88593 | 145.44367 | 22669 ft | 488 kts | 37° |
| 2026-05-04 15:11 | -36.85968 | 145.47073 | 22968 ft | 490 kts | 37° |
| 2026-05-04 15:12 | -36.83365 | 145.49750 | 23400 ft | 491 kts | 37° |
| 2026-05-04 15:12 | -36.80724 | 145.52463 | 23832 ft | 491 kts | 37° |
| 2026-05-04 15:12 | -36.78096 | 145.55158 | 24315 ft | 486 kts | 37° |
| 2026-05-04 15:12 | -36.75489 | 145.57829 | 24752 ft | 485 kts | 36° |
| 2026-05-04 15:13 | -36.72882 | 145.60497 | 25165 ft | 485 kts | 36° |
| 2026-05-04 15:13 | -36.70277 | 145.63162 | 25542 ft | 485 kts | 36° |
| 2026-05-04 15:13 | -36.67670 | 145.65828 | 25945 ft | 485 kts | 36° |
| 2026-05-04 15:13 | -36.65058 | 145.68499 | 26361 ft | 485 kts | 36° |
| 2026-05-04 15:14 | -36.62458 | 145.71155 | 26748 ft | 484 kts | 36° |
| 2026-05-04 15:14 | -36.59848 | 145.73815 | 27150 ft | 485 kts | 36° |
| 2026-05-04 15:14 | -36.57236 | 145.76474 | 27570 ft | 485 kts | 36° |
| 2026-05-04 15:14 | -36.54625 | 145.79130 | 28028 ft | 484 kts | 35° |
| 2026-05-04 15:15 | -36.52028 | 145.81769 | 28602 ft | 480 kts | 34° |
| 2026-05-04 15:15 | -36.49447 | 145.84391 | 29137 ft | 478 kts | 34° |
| 2026-05-04 15:15 | -36.46874 | 145.87004 | 29560 ft | 477 kts | 34° |
| 2026-05-04 15:16 | -36.41728 | 145.92218 | 30393 ft | 477 kts | 33° |
| 2026-05-04 15:16 | -36.39154 | 145.94821 | 30766 ft | 477 kts | 33° |
| 2026-05-04 15:16 | -36.34009 | 146.00025 | 31494 ft | 477 kts | 33° |
| 2026-05-04 15:17 | -36.31438 | 146.02628 | 31826 ft | 477 kts | 32° |
| 2026-05-04 15:17 | -36.26295 | 146.07813 | 32661 ft | 475 kts | 32° |
| 2026-05-04 15:17 | -36.23738 | 146.10381 | 33055 ft | 474 kts | 32° |
| 2026-05-04 15:18 | -36.21176 | 146.12952 | 33434 ft | 474 kts | 31° |
| 2026-05-04 15:18 | -36.18642 | 146.15497 | 33809 ft | 474 kts | 31° |
| 2026-05-04 15:18 | -36.16080 | 146.18071 | 34129 ft | 474 kts | 31° |
| 2026-05-04 15:19 | -36.10981 | 146.23191 | 34815 ft | 471 kts | 31° |
| 2026-05-04 15:19 | -36.08427 | 146.25751 | 35041 ft | 472 kts | 31° |
| 2026-05-04 15:19 | -36.03272 | 146.30901 | 35098 ft | 483 kts | 31° |
| 2026-05-04 15:20 | -35.97991 | 146.36169 | 35101 ft | 490 kts | 31° |
| 2026-05-04 15:20 | -35.92685 | 146.41473 | 35102 ft | 490 kts | 31° |
| 2026-05-04 15:21 | -35.87409 | 146.46732 | 35105 ft | 490 kts | 31° |
| 2026-05-04 15:22 | -35.79440 | 146.54641 | 35111 ft | 490 kts | 31° |
| 2026-05-04 15:22 | -35.71459 | 146.62546 | 35115 ft | 490 kts | 31° |
| 2026-05-04 15:23 | -35.66143 | 146.67796 | 35113 ft | 490 kts | 31° |
| 2026-05-04 15:23 | -35.60816 | 146.73058 | 35114 ft | 491 kts | 31° |
| 2026-05-04 15:24 | -35.50200 | 146.83508 | 35093 ft | 490 kts | 31° |
| 2026-05-04 15:25 | -35.44874 | 146.88728 | 35114 ft | 489 kts | 31° |
| 2026-05-04 15:26 | -35.36902 | 146.96533 | 35120 ft | 488 kts | 31° |
| 2026-05-04 15:26 | -35.28951 | 147.04296 | 35113 ft | 488 kts | 31° |
| 2026-05-04 15:27 | -35.20982 | 147.12065 | 35122 ft | 488 kts | 31° |
| 2026-05-04 15:28 | -35.13016 | 147.19788 | 35128 ft | 486 kts | 31° |
| 2026-05-04 15:29 | -35.05065 | 147.27498 | 35132 ft | 486 kts | 30° |
| 2026-05-04 15:30 | -34.86584 | 147.45322 | 35115 ft | 483 kts | 30° |
| 2026-05-04 15:31 | -34.78678 | 147.52933 | 35134 ft | 482 kts | 30° |
| 2026-05-04 15:32 | -34.65524 | 147.65515 | 35118 ft | 482 kts | 30° |
| 2026-05-04 15:34 | -34.52367 | 147.78067 | 35128 ft | 481 kts | 29° |
| 2026-05-04 15:34 | -34.44464 | 147.85581 | 35140 ft | 480 kts | 29° |
| 2026-05-04 15:35 | -34.36560 | 147.93071 | 35143 ft | 480 kts | 29° |
| 2026-05-04 15:36 | -34.28702 | 148.00504 | 35133 ft | 480 kts | 28° |
| 2026-05-04 15:36 | -34.23431 | 148.05482 | 35144 ft | 479 kts | 28° |
| 2026-05-04 15:37 | -34.18173 | 148.10429 | 35151 ft | 479 kts | 28° |
| 2026-05-04 15:37 | -34.12910 | 148.15383 | 35151 ft | 479 kts | 28° |
| 2026-05-04 15:38 | -34.07649 | 148.20331 | 35144 ft | 479 kts | 28° |
| 2026-05-04 15:38 | -34.02377 | 148.25270 | 35143 ft | 479 kts | 28° |
| 2026-05-04 15:39 | -33.97117 | 148.30181 | 35155 ft | 479 kts | 28° |
| 2026-05-04 15:40 | -33.89252 | 148.37544 | 35160 ft | 479 kts | 28° |
| 2026-05-04 15:40 | -33.83985 | 148.42458 | 35160 ft | 479 kts | 28° |
| 2026-05-04 15:41 | -33.78718 | 148.47366 | 35148 ft | 479 kts | 28° |
| 2026-05-04 15:41 | -33.73440 | 148.52268 | 35142 ft | 479 kts | 28° |
| 2026-05-04 15:42 | -33.68155 | 148.57160 | 35153 ft | 479 kts | 28° |
| 2026-05-04 15:42 | -33.62905 | 148.62013 | 35120 ft | 479 kts | 28° |
| 2026-05-04 15:43 | -33.57616 | 148.66912 | 35142 ft | 479 kts | 28° |
| 2026-05-04 15:43 | -33.52338 | 148.71799 | 35149 ft | 479 kts | 28° |
| 2026-05-04 15:44 | -33.47088 | 148.76643 | 35119 ft | 479 kts | 28° |
| 2026-05-04 15:44 | -33.41807 | 148.81502 | 35155 ft | 478 kts | 28° |
| 2026-05-04 15:45 | -33.36527 | 148.86351 | 35165 ft | 478 kts | 28° |
| 2026-05-04 15:45 | -33.31236 | 148.91210 | 35177 ft | 478 kts | 28° |
| 2026-05-04 15:46 | -33.25989 | 148.96023 | 35157 ft | 477 kts | 28° |
| 2026-05-04 15:46 | -33.20722 | 149.00849 | 35169 ft | 477 kts | 28° |
| 2026-05-04 15:47 | -33.15452 | 149.05663 | 35165 ft | 477 kts | 28° |
| 2026-05-04 15:47 | -33.11074 | 149.09645 | 35170 ft | 476 kts | 28° |
| 2026-05-04 15:48 | -33.05796 | 149.14443 | 35154 ft | 476 kts | 28° |
| 2026-05-04 15:48 | -32.97891 | 149.21633 | 35159 ft | 476 kts | 28° |
| 2026-05-04 15:49 | -32.92628 | 149.26420 | 35155 ft | 476 kts | 28° |
| 2026-05-04 15:49 | -32.87361 | 149.31190 | 35137 ft | 475 kts | 27° |
| 2026-05-04 15:50 | -32.82096 | 149.35954 | 35141 ft | 476 kts | 27° |
| 2026-05-04 15:50 | -32.76856 | 149.40677 | 35141 ft | 476 kts | 27° |
| 2026-05-04 15:51 | -32.71583 | 149.45434 | 35114 ft | 476 kts | 26° |
| 2026-05-04 15:51 | -32.66307 | 149.50191 | 35122 ft | 476 kts | 26° |
| 2026-05-04 15:52 | -32.61018 | 149.54943 | 35125 ft | 476 kts | 26° |
| 2026-05-04 15:52 | -32.55754 | 149.59669 | 35127 ft | 476 kts | 26° |
| 2026-05-04 15:53 | -32.50402 | 149.64284 | 35105 ft | 474 kts | 24° |
| 2026-05-04 15:53 | -32.44997 | 149.68761 | 35114 ft | 474 kts | 24° |
| 2026-05-04 15:54 | -32.39615 | 149.73234 | 35121 ft | 475 kts | 24° |
| 2026-05-04 15:54 | -32.34220 | 149.77758 | 35096 ft | 476 kts | 23° |
| 2026-05-04 15:55 | -32.28821 | 149.82299 | 35116 ft | 476 kts | 24° |
| 2026-05-04 15:55 | -32.23415 | 149.86839 | 35123 ft | 476 kts | 23° |
| 2026-05-04 15:56 | -32.18009 | 149.91355 | 35127 ft | 476 kts | 23° |
| 2026-05-04 15:56 | -32.12630 | 149.95840 | 35128 ft | 476 kts | 23° |
| 2026-05-04 15:57 | -32.07229 | 150.00347 | 35132 ft | 476 kts | 23° |
| 2026-05-04 15:57 | -32.01809 | 150.04857 | 35133 ft | 476 kts | 23° |
| 2026-05-04 15:58 | -31.96406 | 150.09344 | 35094 ft | 476 kts | 23° |
| 2026-05-04 15:58 | -31.90990 | 150.13836 | 35099 ft | 476 kts | 22° |
| 2026-05-04 15:59 | -31.85597 | 150.18301 | 35101 ft | 477 kts | 22° |
| 2026-05-04 15:59 | -31.80163 | 150.22800 | 35107 ft | 478 kts | 22° |
| 2026-05-04 16:00 | -31.74722 | 150.27306 | 35092 ft | 478 kts | 21° |
| 2026-05-04 16:00 | -31.69281 | 150.31786 | 35101 ft | 479 kts | 21° |
| 2026-05-04 16:01 | -31.63828 | 150.36290 | 35105 ft | 479 kts | 21° |
| 2026-05-04 16:01 | -31.58368 | 150.40774 | 35107 ft | 479 kts | 21° |
| 2026-05-04 16:02 | -31.52906 | 150.45247 | 35096 ft | 479 kts | 21° |
| 2026-05-04 16:03 | -31.44762 | 150.51939 | 35105 ft | 478 kts | 21° |
| 2026-05-04 16:03 | -31.39299 | 150.56406 | 35119 ft | 478 kts | 21° |
| 2026-05-04 16:04 | -31.33830 | 150.60865 | 35098 ft | 478 kts | 21° |
| 2026-05-04 16:04 | -31.25675 | 150.67520 | 35118 ft | 479 kts | 21° |
| 2026-05-04 16:05 | -31.20186 | 150.71999 | 35127 ft | 478 kts | 21° |
| 2026-05-04 16:06 | -31.12020 | 150.78633 | 35105 ft | 479 kts | 20° |
| 2026-05-04 16:06 | -31.04790 | 150.84888 | 35115 ft | 495 kts | 28° |
| 2026-05-04 16:07 | -31.01392 | 150.88437 | 35117 ft | 496 kts | 28° |
| 2026-05-04 16:08 | -30.91095 | 150.99183 | 35097 ft | 496 kts | 28° |
| 2026-05-04 16:09 | -30.78205 | 151.12552 | 35126 ft | 496 kts | 28° |
| 2026-05-04 16:10 | -30.67910 | 151.23204 | 35131 ft | 496 kts | 28° |
| 2026-05-04 16:11 | -30.57573 | 151.33835 | 35123 ft | 496 kts | 28° |
| 2026-05-04 16:12 | -30.42041 | 151.49800 | 35149 ft | 498 kts | 28° |
| 2026-05-04 16:13 | -30.31682 | 151.60392 | 35143 ft | 498 kts | 29° |
| 2026-05-04 16:14 | -30.21271 | 151.71003 | 35149 ft | 499 kts | 29° |
| 2026-05-04 16:16 | -30.08262 | 151.84229 | 35167 ft | 499 kts | 29° |
| 2026-05-04 16:17 | -29.95200 | 151.97459 | 35139 ft | 500 kts | 30° |
| 2026-05-04 16:18 | -29.84747 | 152.08018 | 35153 ft | 502 kts | 30° |
| 2026-05-04 16:19 | -29.71593 | 152.21252 | 35132 ft | 502 kts | 30° |
| 2026-05-04 16:20 | -29.58454 | 152.34421 | 35140 ft | 502 kts | 30° |
| 2026-05-04 16:22 | -29.45264 | 152.47596 | 35128 ft | 502 kts | 30° |
| 2026-05-04 16:23 | -29.29456 | 152.63325 | 35116 ft | 501 kts | 30° |
| 2026-05-04 16:25 | -29.13654 | 152.78988 | 35116 ft | 500 kts | 30° |
| 2026-05-04 16:26 | -28.95266 | 152.97136 | 35110 ft | 500 kts | 30° |
| 2026-05-04 16:28 | -28.81508 | 153.08668 | 35095 ft | 482 kts | 18° |
| 2026-05-04 16:29 | -28.61082 | 153.21928 | 35075 ft | 483 kts | 18° |
| 2026-05-04 16:31 | -28.46463 | 153.31371 | 35088 ft | 484 kts | 18° |
| 2026-05-04 16:32 | -28.28967 | 153.42668 | 35095 ft | 482 kts | 18° |
| 2026-05-04 16:33 | -28.17108 | 153.49368 | 35076 ft | 459 kts | 3° |
| 2026-05-04 16:34 | -28.11992 | 153.50316 | 35080 ft | 439 kts | 351° |
| 2026-05-04 16:34 | -28.08966 | 153.50336 | 35081 ft | 433 kts | 348° |
| 2026-05-04 16:35 | -27.89843 | 153.50127 | 35090 ft | 435 kts | 348° |
| 2026-05-04 16:36 | -27.81786 | 153.50042 | 35090 ft | 435 kts | 348° |
| 2026-05-04 16:37 | -27.72698 | 153.49938 | 35092 ft | 435 kts | 348° |
| 2026-05-04 16:38 | -27.60571 | 153.49811 | 35079 ft | 436 kts | 348° |
| 2026-05-04 16:39 | -27.51454 | 153.49705 | 33716 ft | 441 kts | 349° |
| 2026-05-04 16:39 | -27.45263 | 153.49635 | 31845 ft | 449 kts | 350° |
| 2026-05-04 16:40 | -27.38986 | 153.49575 | 29863 ft | 458 kts | 352° |
| 2026-05-04 16:40 | -27.32536 | 153.49521 | 27541 ft | 467 kts | 353° |
| 2026-05-04 16:41 | -27.25974 | 153.49465 | 25155 ft | 474 kts | 353° |
| 2026-05-04 16:41 | -27.16462 | 153.49412 | 21750 ft | 434 kts | 354° |
| 2026-05-04 16:42 | -27.07591 | 153.49323 | 19109 ft | 424 kts | 354° |
| 2026-05-04 16:43 | -27.01702 | 153.49251 | 17283 ft | 422 kts | 355° |
| 2026-05-04 16:43 | -26.95873 | 153.49199 | 15559 ft | 416 kts | 356° |
| 2026-05-04 16:43 | -26.93016 | 153.49177 | 14746 ft | 414 kts | 356° |
| 2026-05-04 16:44 | -26.81632 | 153.49076 | 11572 ft | 402 kts | 358° |
| 2026-05-04 16:45 | -26.76360 | 153.48310 | 11128 ft | 363 kts | 336° |
| 2026-05-04 16:46 | -26.71455 | 153.42987 | 10772 ft | 314 kts | 293° |
| 2026-05-04 16:46 | -26.69954 | 153.38595 | 10528 ft | 292 kts | 291° |
| 2026-05-04 16:47 | -26.68526 | 153.34439 | 10260 ft | 284 kts | 291° |
| 2026-05-04 16:47 | -26.67106 | 153.30318 | 9889 ft | 285 kts | 291° |
| 2026-05-04 16:48 | -26.63752 | 153.24969 | 8339 ft | 283 kts | 327° |
| 2026-05-04 16:48 | -26.62073 | 153.23824 | 7696 ft | 282 kts | 328° |
| 2026-05-04 16:49 | -26.58754 | 153.21541 | 6532 ft | 280 kts | 329° |
| 2026-05-04 16:49 | -26.55427 | 153.19236 | 5494 ft | 286 kts | 329° |
| 2026-05-04 16:50 | -26.52037 | 153.16883 | 4772 ft | 280 kts | 329° |
| 2026-05-04 16:50 | -26.48886 | 153.14705 | 4458 ft | 252 kts | 329° |
| 2026-05-04 16:51 | -26.46111 | 153.12783 | 4262 ft | 220 kts | 329° |
| 2026-05-04 16:51 | -26.44965 | 153.11711 | 4163 ft | 213 kts | 302° |
| 2026-05-04 16:51 | -26.44774 | 153.08738 | 3968 ft | 185 kts | 253° |
| 2026-05-04 16:52 | -26.45400 | 153.05971 | 3206 ft | 187 kts | 251° |
| 2026-05-04 16:52 | -26.45919 | 153.04655 | 2894 ft | 184 kts | 234° |
| 2026-05-04 16:53 | -26.47694 | 153.02709 | 2424 ft | 177 kts | 206° |
| 2026-05-04 16:53 | -26.51106 | 153.02030 | 1756 ft | 160 kts | 167° |
| 2026-05-04 16:54 | -26.52158 | 153.02380 | 1536 ft | 157 kts | 155° |
| 2026-05-04 16:55 | -26.55466 | 153.05007 | 731 ft | 140 kts | 144° |
| 2026-05-04 16:55 | -26.56998 | 153.06342 | 373 ft | 140 kts | 143° |
| 2026-05-04 16:56 | -26.58532 | 153.07649 | 37 ft | 139 kts | 144° |
| 2026-05-04 16:56 | -26.59995 | 153.08888 | 22 ft | 61 kts | 143° |
| 2026-05-04 16:57 | -26.60277 | 153.09129 | 21 ft | 31 kts | 141° |
| 2026-05-04 16:57 | -26.60484 | 153.09135 | 21 ft | 12 kts | 233° |
| 2026-05-04 16:58 | -26.60624 | 153.09037 | 24 ft | 6 kts | 240° |
| 2026-05-04 16:58 | -26.60616 | 153.08992 | 21 ft | 7 kts | 280° |
| 2026-05-04 16:59 | -26.60604 | 153.08941 | 21 ft | 0 kts | 283° |